createdAt,value
2019-02-18T00:02:28.890Z,21.65
2019-02-18T00:04:55.907Z,22.50
2019-02-18T00:07:23.059Z,20.30
2019-02-18T00:09:50.618Z,21.73
2019-02-18T00:12:17.807Z,21.85
2019-02-18T00:14:45.142Z,21.40
2019-02-18T00:17:12.192Z,21.50
2019-02-18T00:19:40.251Z,20.20
2019-02-18T00:22:07.387Z,19.67
2019-02-18T00:24:34.534Z,21.60
2019-02-18T00:27:01.650Z,21.17
2019-02-18T00:29:29.121Z,22.27
2019-02-18T00:31:56.438Z,23.32
2019-02-18T00:34:23.903Z,21.15
2019-02-18T00:36:50.962Z,21.55
2019-02-18T00:39:18.258Z,20.72
2019-02-18T00:41:45.376Z,20.97
2019-02-18T00:44:12.494Z,21.02
2019-02-18T00:46:40.062Z,20.35
2019-02-18T00:49:07.062Z,19.98
2019-02-18T00:51:35.230Z,20.88
2019-02-18T00:54:02.320Z,20.37
2019-02-18T00:56:29.756Z,20.70
2019-02-18T00:58:56.986Z,20.62
2019-02-18T01:01:24.109Z,22.02
2019-02-18T01:03:51.965Z,21.17
2019-02-18T01:06:18.982Z,20.23
2019-02-18T01:08:46.236Z,21.62
2019-02-18T01:11:13.385Z,21.37
2019-02-18T01:13:40.779Z,21.27
2019-02-18T01:16:07.870Z,21.55
2019-02-18T01:18:44.213Z,21.90
2019-02-18T01:21:12.273Z,21.70
2019-02-18T01:23:39.506Z,21.87
2019-02-18T01:26:06.792Z,22.95
2019-02-18T01:28:34.306Z,22.67
2019-02-18T01:31:01.723Z,21.07
2019-02-18T01:33:30.688Z,24.23
2019-02-18T01:35:57.904Z,22.98
2019-02-18T01:38:25.005Z,25.15
2019-02-18T01:40:52.039Z,25.35
2019-02-18T01:43:19.411Z,23.65
2019-02-18T01:45:46.834Z,23.92
2019-02-18T01:48:14.127Z,25.15
2019-02-18T01:50:41.268Z,23.02
2019-02-18T01:53:08.592Z,26.00
2019-02-18T01:55:36.139Z,24.72
2019-02-18T01:58:03.427Z,24.07
2019-02-18T02:00:31.758Z,24.77
2019-02-18T02:02:58.844Z,23.45
2019-02-18T02:05:26.391Z,24.00
2019-02-18T02:07:56.283Z,24.98
2019-02-18T02:10:22.444Z,23.30
2019-02-18T02:12:49.788Z,23.20
2019-02-18T02:15:20.123Z,22.80
2019-02-18T02:17:47.154Z,23.45
2019-02-18T02:20:14.263Z,22.48
2019-02-18T02:22:41.480Z,22.30
2019-02-18T02:25:08.971Z,21.93
2019-02-18T02:27:37.526Z,21.55
2019-02-18T02:30:05.111Z,22.10
2019-02-18T02:32:32.329Z,21.95
2019-02-18T02:34:59.790Z,21.97
2019-02-18T02:37:26.932Z,21.97
2019-02-18T02:39:54.151Z,21.73
2019-02-18T02:42:21.444Z,20.45
2019-02-18T02:44:48.570Z,19.75
2019-02-18T02:47:15.890Z,20.57
2019-02-18T02:49:43.305Z,20.10
2019-02-18T02:52:10.326Z,21.23
2019-02-18T02:54:37.830Z,20.12
2019-02-18T02:57:05.071Z,20.17
2019-02-18T02:59:32.231Z,19.70
2019-02-18T03:01:59.517Z,18.87
2019-02-18T03:04:26.918Z,18.70
2019-02-18T03:06:53.910Z,20.15
2019-02-18T03:09:21.015Z,19.17
2019-02-18T03:11:48.287Z,18.92
2019-02-18T03:14:15.733Z,19.85
2019-02-18T03:16:42.792Z,18.35
2019-02-18T03:19:09.825Z,19.10
2019-02-18T03:21:36.871Z,19.05
2019-02-18T03:24:04.042Z,18.35
2019-02-18T03:26:31.379Z,18.92
2019-02-18T03:30:05.290Z,19.12
2019-02-18T03:32:39.503Z,17.75
2019-02-18T03:35:06.723Z,18.73
2019-02-18T03:37:34.468Z,17.75
2019-02-18T03:40:01.568Z,18.23
2019-02-18T03:42:28.984Z,17.87
2019-02-18T03:44:56.173Z,18.85
2019-02-18T03:47:24.350Z,18.80
2019-02-18T03:49:51.392Z,18.42
2019-02-18T03:52:18.464Z,17.95
2019-02-18T03:54:45.487Z,18.70
2019-02-18T03:57:13.118Z,18.07
2019-02-18T03:59:40.168Z,18.32
2019-02-18T04:02:07.456Z,17.70
2019-02-18T04:04:34.779Z,15.53
2019-02-18T04:07:01.928Z,16.40
2019-02-18T04:09:29.012Z,16.95
2019-02-18T04:11:56.640Z,16.35
2019-02-18T04:14:23.685Z,16.32
2019-02-18T04:16:50.778Z,17.25
2019-02-18T04:19:18.813Z,16.42
2019-02-18T04:21:46.355Z,17.17
2019-02-18T04:24:13.648Z,17.77
2019-02-18T04:26:41.280Z,16.23
2019-02-18T04:29:08.354Z,18.10
2019-02-18T04:31:35.503Z,17.73
2019-02-18T04:34:02.996Z,19.07
2019-02-18T04:36:30.112Z,17.90
2019-02-18T04:38:57.165Z,18.50
2019-02-18T04:41:24.687Z,17.57
2019-02-18T04:43:51.999Z,17.82
2019-02-18T04:46:19.011Z,17.67
2019-02-18T04:48:46.056Z,18.05
2019-02-18T04:51:13.293Z,18.77
2019-02-18T04:53:40.753Z,18.77
2019-02-18T04:56:09.330Z,17.62
2019-02-18T04:58:37.443Z,17.65
2019-02-18T05:01:05.612Z,17.07
2019-02-18T05:03:32.740Z,16.07
2019-02-18T05:05:59.980Z,17.50
2019-02-18T05:08:27.387Z,16.75
2019-02-18T05:10:54.714Z,16.40
2019-02-18T05:13:21.999Z,15.38
2019-02-18T05:15:49.006Z,16.62
2019-02-18T05:18:16.318Z,16.90
2019-02-18T05:20:43.332Z,16.75
2019-02-18T05:23:10.835Z,16.25
2019-02-18T05:25:38.706Z,15.80
2019-02-18T05:28:05.904Z,15.40
2019-02-18T05:30:33.396Z,14.87
2019-02-18T05:33:00.557Z,15.75
2019-02-18T05:35:28.048Z,14.87
2019-02-18T05:37:55.094Z,15.55
2019-02-18T05:40:23.368Z,15.50
2019-02-18T05:42:51.660Z,15.20
2019-02-18T05:45:19.289Z,16.55
2019-02-18T05:47:46.335Z,16.70
2019-02-18T05:50:14.541Z,16.75
2019-02-18T05:52:41.855Z,16.45
2019-02-18T05:55:08.852Z,17.82
2019-02-18T05:57:36.116Z,18.40
2019-02-18T06:00:04.873Z,18.17
2019-02-18T06:02:31.970Z,17.98
2019-02-18T06:04:59.656Z,18.55
2019-02-18T06:07:26.783Z,17.82
2019-02-18T06:09:54.047Z,17.40
2019-02-18T06:12:23.928Z,18.87
2019-02-18T06:14:51.087Z,17.00
2019-02-18T06:18:10.609Z,17.12
2019-02-18T06:20:47.045Z,18.15
2019-02-18T06:23:18.975Z,18.67
2019-02-18T06:25:46.939Z,17.57
2019-02-18T06:28:14.145Z,17.17
2019-02-18T06:30:41.265Z,17.20
2019-02-18T06:33:08.338Z,17.10
2019-02-18T06:35:35.671Z,17.80
2019-02-18T06:38:03.031Z,18.12
2019-02-18T06:40:30.482Z,17.00
2019-02-18T06:42:57.613Z,16.97
2019-02-18T06:45:39.470Z,17.23
2019-02-18T06:48:15.491Z,18.05
2019-02-18T06:50:42.663Z,16.62
2019-02-18T06:53:09.744Z,17.10
2019-02-18T06:55:37.322Z,17.77
2019-02-18T06:58:24.331Z,17.77
2019-02-18T07:00:59.369Z,17.80
2019-02-18T07:03:31.134Z,17.65
2019-02-18T07:06:05.386Z,16.07
2019-02-18T07:08:46.809Z,16.30
2019-02-18T07:11:18.227Z,16.45
2019-02-18T07:13:45.339Z,17.05
2019-02-18T07:16:12.464Z,16.57
2019-02-18T07:18:40.043Z,20.30
2019-02-18T07:21:07.109Z,17.37
2019-02-18T07:23:34.809Z,17.40
2019-02-18T07:26:02.335Z,19.82
2019-02-18T07:28:29.498Z,18.52
2019-02-18T07:30:56.662Z,21.85
2019-02-18T07:33:23.983Z,21.55
2019-02-18T07:35:51.205Z,19.82
2019-02-18T07:38:18.261Z,19.40
2019-02-18T07:40:45.391Z,19.07
2019-02-18T07:43:12.767Z,20.10
2019-02-18T07:45:39.797Z,21.27
2019-02-18T07:48:07.249Z,18.90
2019-02-18T07:50:34.464Z,18.42
2019-02-18T07:53:01.878Z,19.90
2019-02-18T07:55:28.945Z,18.62
2019-02-18T07:57:55.978Z,18.57
2019-02-18T08:00:23.684Z,18.20
2019-02-18T08:02:51.554Z,19.05
2019-02-18T08:05:18.834Z,20.02
2019-02-18T08:07:46.140Z,19.57
2019-02-18T08:10:13.512Z,18.10
2019-02-18T08:12:40.661Z,18.32
2019-02-18T08:15:16.598Z,17.52
2019-02-18T08:17:43.899Z,20.05
2019-02-18T08:20:21.088Z,19.95
2019-02-18T08:22:48.946Z,19.50
2019-02-18T08:25:16.248Z,18.45
2019-02-18T08:27:43.924Z,18.07
2019-02-18T08:30:11.570Z,18.87
2019-02-18T08:32:38.768Z,18.95
2019-02-18T08:35:06.454Z,19.80
2019-02-18T08:37:33.502Z,19.25
2019-02-18T08:40:00.780Z,19.02
2019-02-18T08:42:28.226Z,20.68
2019-02-18T08:44:55.560Z,18.85
2019-02-18T08:47:23.844Z,18.55
2019-02-18T08:49:51.010Z,17.52
2019-02-18T08:52:18.242Z,17.55
2019-02-18T08:54:45.664Z,17.37
2019-02-18T08:57:12.909Z,16.07
2019-02-18T08:59:40.481Z,18.37
2019-02-18T09:02:07.991Z,15.72
2019-02-18T09:04:35.319Z,15.08
2019-02-18T09:07:02.770Z,16.85
2019-02-18T09:09:29.916Z,17.45
2019-02-18T09:11:57.580Z,16.32
2019-02-18T09:14:25.113Z,18.10
2019-02-18T09:16:52.430Z,16.25
2019-02-18T09:19:19.638Z,16.55
2019-02-18T09:21:48.707Z,15.20
2019-02-18T09:24:26.818Z,16.65
2019-02-18T09:26:54.195Z,14.05
2019-02-18T09:29:21.524Z,15.50
2019-02-18T09:31:49.031Z,15.13
2019-02-18T09:34:16.238Z,16.15
2019-02-18T09:36:43.438Z,15.98
2019-02-18T09:39:15.068Z,16.17
2019-02-18T09:41:42.226Z,17.37
2019-02-18T09:44:10.019Z,17.70
2019-02-18T09:46:37.027Z,17.10
2019-02-18T09:49:04.154Z,17.50
2019-02-18T09:51:31.250Z,17.42
2019-02-18T09:53:58.516Z,16.55
2019-02-18T09:56:25.807Z,16.70
2019-02-18T09:58:52.886Z,17.07
2019-02-18T10:01:30.099Z,14.73
2019-02-18T10:03:59.472Z,16.85
2019-02-18T10:06:26.905Z,15.30
2019-02-18T10:08:53.980Z,17.73
2019-02-18T10:11:21.091Z,17.77
2019-02-18T10:13:48.229Z,17.55
2019-02-18T10:16:15.562Z,23.05
2019-02-18T10:18:42.611Z,27.20
2019-02-18T10:21:09.857Z,22.13
2019-02-18T10:23:37.082Z,19.57
2019-02-18T10:26:04.367Z,22.60
2019-02-18T10:28:31.973Z,19.80
2019-02-18T10:30:59.564Z,18.70
2019-02-18T10:33:26.741Z,20.97
2019-02-18T10:35:53.860Z,19.98
2019-02-18T10:38:21.823Z,18.05
2019-02-18T10:40:49.199Z,17.50
2019-02-18T10:43:16.427Z,17.67
2019-02-18T10:45:43.508Z,16.40
2019-02-18T10:48:11.182Z,18.23
2019-02-18T10:50:38.998Z,17.87
2019-02-18T10:53:06.283Z,16.77
2019-02-18T10:55:37.621Z,19.42
2019-02-18T10:58:05.283Z,17.10
2019-02-18T11:00:33.767Z,19.00
2019-02-18T11:03:00.772Z,16.00
2019-02-18T11:05:28.167Z,17.25
2019-02-18T11:07:55.837Z,14.53
2019-02-18T11:10:23.482Z,15.10
2019-02-18T11:12:50.798Z,13.83
2019-02-18T11:15:18.010Z,16.17
2019-02-18T11:17:45.441Z,15.48
2019-02-18T11:20:13.308Z,16.00
2019-02-18T11:22:40.966Z,15.95
2019-02-18T11:25:17.200Z,16.55
2019-02-18T11:27:44.687Z,15.85
2019-02-18T11:30:12.733Z,17.32
2019-02-18T11:32:40.375Z,14.28
2019-02-18T11:35:07.791Z,16.25
2019-02-18T11:37:35.339Z,14.85
2019-02-18T11:40:03.067Z,15.28
2019-02-18T11:42:30.626Z,14.83
2019-02-18T11:44:57.702Z,18.52
2019-02-18T11:47:25.133Z,15.85
2019-02-18T11:49:52.300Z,18.42
2019-02-18T11:52:19.655Z,18.92
2019-02-18T11:54:48.117Z,19.02
2019-02-18T11:57:15.436Z,17.17
2019-02-18T11:59:42.878Z,15.78
2019-02-18T12:02:10.158Z,15.25
2019-02-18T12:04:37.555Z,15.70
2019-02-18T12:07:04.675Z,17.77
2019-02-18T12:09:31.820Z,16.85
2019-02-18T12:11:59.017Z,17.42
2019-02-18T12:14:27.470Z,15.95
2019-02-18T12:16:55.123Z,16.27
2019-02-18T12:19:22.670Z,15.40
2019-02-18T12:21:49.925Z,16.67
2019-02-18T12:24:17.085Z,17.67
2019-02-18T12:26:44.375Z,15.68
2019-02-18T12:29:11.514Z,16.37
2019-02-18T12:31:38.779Z,16.65
2019-02-18T12:34:06.028Z,16.67
2019-02-18T12:36:33.347Z,15.70
2019-02-18T12:39:00.499Z,16.45
2019-02-18T12:41:28.342Z,15.75
2019-02-18T12:43:55.519Z,16.80
2019-02-18T12:46:22.662Z,15.28
2019-02-18T12:48:50.064Z,16.17
2019-02-18T12:51:17.378Z,15.65
2019-02-18T12:53:46.277Z,16.25
2019-02-18T12:56:13.815Z,16.42
2019-02-18T12:58:41.427Z,16.20
2019-02-18T13:01:09.272Z,15.55
2019-02-18T13:03:36.462Z,16.42
2019-02-18T13:06:03.762Z,16.17
2019-02-18T13:08:31.453Z,15.98
2019-02-18T13:10:58.764Z,16.80
2019-02-18T13:13:25.942Z,14.85
2019-02-18T13:15:53.473Z,15.35
2019-02-18T13:18:20.824Z,14.78
2019-02-18T13:20:48.533Z,15.40
2019-02-18T13:23:15.859Z,16.17
2019-02-18T13:25:47.482Z,16.20
2019-02-18T13:28:12.600Z,16.87
2019-02-18T13:30:39.925Z,16.70
2019-02-18T13:33:07.522Z,16.23
2019-02-18T13:35:34.911Z,15.78
2019-02-18T13:38:02.349Z,17.02
2019-02-18T13:40:29.596Z,16.35
2019-02-18T13:42:56.914Z,16.60
2019-02-18T13:45:24.306Z,15.83
2019-02-18T13:47:51.994Z,16.12
2019-02-18T13:50:19.185Z,18.07
2019-02-18T13:52:46.574Z,16.55
2019-02-18T13:55:13.988Z,17.02
2019-02-18T13:57:41.623Z,16.67
2019-02-18T14:00:18.401Z,16.93
2019-02-18T14:02:46.621Z,17.40
2019-02-18T14:05:14.016Z,18.42
2019-02-18T14:07:41.382Z,18.40
2019-02-18T14:10:08.963Z,18.10
2019-02-18T14:12:38.134Z,17.37
2019-02-18T14:15:07.726Z,20.12
2019-02-18T14:17:35.374Z,25.43
2019-02-18T14:20:03.165Z,19.77
2019-02-18T14:22:30.375Z,18.23
2019-02-18T14:24:57.694Z,16.67
2019-02-18T14:27:25.084Z,18.48
2019-02-18T14:29:52.438Z,18.05
2019-02-18T14:32:20.026Z,17.57
2019-02-18T14:34:47.261Z,20.00
2019-02-18T14:37:14.572Z,15.68
2019-02-18T14:39:41.853Z,18.17
2019-02-18T14:42:09.035Z,17.48
2019-02-18T14:44:36.288Z,16.57
2019-02-18T14:47:03.821Z,17.48
2019-02-18T14:49:31.242Z,16.85
2019-02-18T14:51:58.479Z,15.60
2019-02-18T14:54:26.556Z,16.55
2019-02-18T14:56:54.095Z,15.90
2019-02-18T14:59:21.236Z,17.45
2019-02-18T15:01:48.756Z,15.75
2019-02-18T15:04:16.377Z,19.35
2019-02-18T15:06:44.036Z,16.37
2019-02-18T15:09:11.695Z,15.38
2019-02-18T15:11:39.001Z,15.68
2019-02-18T15:14:06.529Z,16.23
2019-02-18T15:16:33.776Z,15.13
2019-02-18T15:19:01.078Z,15.28
2019-02-18T15:21:28.487Z,13.78
2019-02-18T15:23:56.439Z,14.25
2019-02-18T15:26:24.538Z,13.48
2019-02-18T15:28:51.898Z,13.70
2019-02-18T15:31:19.211Z,15.15
2019-02-18T15:33:46.953Z,14.93
2019-02-18T15:36:14.363Z,12.90
2019-02-18T15:38:41.823Z,14.93
2019-02-18T15:41:09.180Z,14.28
2019-02-18T15:43:36.422Z,12.80
2019-02-18T15:46:03.913Z,14.07
2019-02-18T15:48:31.528Z,13.45
2019-02-18T15:50:58.881Z,13.08
2019-02-18T15:53:26.175Z,13.45
2019-02-18T15:55:54.236Z,12.98
2019-02-18T15:58:21.772Z,12.70
2019-02-18T16:00:49.218Z,14.28
2019-02-18T16:03:16.263Z,12.82
2019-02-18T16:05:43.398Z,13.53
2019-02-18T16:08:11.045Z,12.20
2019-02-18T16:10:38.736Z,12.43
2019-02-18T16:13:06.403Z,11.73
2019-02-18T16:15:33.781Z,14.05
2019-02-18T16:18:04.042Z,11.95
2019-02-18T16:20:32.832Z,12.33
2019-02-18T16:23:00.240Z,13.72
2019-02-18T16:25:28.295Z,11.38
2019-02-18T16:27:55.806Z,12.10
2019-02-18T16:30:23.509Z,13.58
2019-02-18T16:32:50.801Z,12.07
2019-02-18T16:35:18.283Z,13.85
2019-02-18T16:37:45.791Z,12.90
2019-02-18T16:40:14.380Z,13.38
2019-02-18T16:42:41.648Z,12.63
2019-02-18T16:45:10.030Z,13.25
2019-02-18T16:47:37.245Z,13.10
2019-02-18T16:50:04.886Z,11.80
2019-02-18T16:52:51.645Z,13.25
2019-02-18T16:55:18.922Z,11.85
2019-02-18T16:57:46.100Z,12.80
2019-02-18T17:00:21.462Z,14.30
2019-02-18T17:02:50.857Z,13.88
2019-02-18T17:05:18.304Z,13.50
2019-02-18T17:07:45.799Z,13.60
2019-02-18T17:10:13.359Z,14.05
2019-02-18T17:12:40.769Z,13.22
2019-02-18T17:15:08.683Z,13.10
2019-02-18T17:17:35.843Z,14.20
2019-02-18T17:20:04.246Z,14.95
2019-02-18T17:22:31.554Z,14.53
2019-02-18T17:24:58.666Z,14.15
2019-02-18T17:27:25.952Z,13.40
2019-02-18T17:29:53.050Z,14.38
2019-02-18T17:32:20.579Z,13.18
2019-02-18T17:34:48.146Z,14.50
2019-02-18T17:37:16.019Z,15.05
2019-02-18T17:39:43.555Z,13.90
2019-02-18T17:42:10.697Z,13.85
2019-02-18T17:44:39.507Z,13.93
2019-02-18T17:47:06.692Z,13.98
2019-02-18T17:49:34.135Z,14.45
2019-02-18T17:52:01.533Z,14.70
2019-02-18T17:54:28.701Z,14.25
2019-02-18T17:56:55.903Z,15.40
2019-02-18T17:59:23.462Z,19.00
2019-02-18T18:01:50.595Z,16.97
2019-02-18T18:04:17.787Z,17.00
2019-02-18T18:06:44.945Z,17.42
2019-02-18T18:09:12.567Z,16.20
2019-02-18T18:11:43.124Z,15.65
2019-02-18T18:14:10.343Z,16.67
2019-02-18T18:16:37.560Z,15.83
2019-02-18T18:19:09.350Z,17.32
2019-02-18T18:21:33.892Z,15.43
2019-02-18T18:24:01.371Z,14.65
2019-02-18T18:26:28.816Z,15.83
2019-02-18T18:28:55.911Z,16.12
2019-02-18T18:31:24.072Z,16.87
2019-02-18T18:33:51.184Z,16.23
2019-02-18T18:36:18.614Z,16.07
2019-02-18T18:38:46.033Z,16.37
2019-02-18T18:41:13.324Z,16.17
2019-02-18T18:43:40.883Z,16.97
2019-02-18T18:46:08.156Z,16.60
2019-02-18T18:48:35.498Z,18.12
2019-02-18T18:51:02.823Z,17.05
2019-02-18T18:53:30.015Z,17.37
2019-02-18T18:55:57.367Z,18.45
2019-02-18T18:58:24.912Z,16.35
2019-02-18T19:00:52.543Z,16.93
2019-02-18T19:03:20.008Z,15.78
2019-02-18T19:05:47.270Z,17.52
2019-02-18T19:08:14.712Z,16.93
2019-02-18T19:10:41.897Z,18.02
2019-02-18T19:13:10.852Z,16.87
2019-02-18T19:15:38.415Z,15.50
2019-02-18T19:18:06.826Z,19.05
2019-02-18T19:20:34.146Z,18.70
2019-02-18T19:23:01.127Z,17.95
2019-02-18T19:25:29.849Z,16.00
2019-02-18T19:27:57.445Z,15.45
2019-02-18T19:30:25.607Z,16.77
2019-02-18T19:32:52.770Z,15.55
2019-02-18T19:35:20.151Z,17.37
2019-02-18T19:37:47.276Z,16.12
2019-02-18T19:40:14.375Z,16.87
2019-02-18T19:42:41.701Z,15.95
2019-02-18T19:45:11.579Z,15.18
2019-02-18T19:47:39.131Z,17.12
2019-02-18T19:50:07.044Z,15.68
2019-02-18T19:52:34.176Z,15.58
2019-02-18T19:55:01.671Z,16.07
2019-02-18T19:57:29.118Z,15.50
2019-02-18T19:59:56.263Z,15.90
2019-02-18T20:02:23.550Z,17.57
2019-02-18T20:04:51.162Z,16.70
2019-02-18T20:07:18.328Z,17.60
2019-02-18T20:09:45.803Z,16.80
2019-02-18T20:12:13.245Z,18.30
2019-02-18T20:14:40.478Z,17.73
2019-02-18T20:17:07.646Z,17.25
2019-02-18T20:19:35.070Z,17.25
2019-02-18T20:22:02.753Z,16.62
2019-02-18T20:24:30.107Z,17.10
2019-02-18T20:26:57.358Z,18.60
2019-02-18T20:29:24.715Z,17.32
2019-02-18T20:31:51.949Z,16.65
2019-02-18T20:34:19.290Z,17.15
2019-02-18T20:36:47.483Z,17.75
2019-02-18T20:39:14.957Z,16.90
2019-02-18T20:41:42.239Z,19.37
2019-02-18T20:44:09.379Z,18.65
2019-02-18T20:46:36.679Z,17.05
2019-02-18T20:49:03.998Z,17.50
2019-02-18T20:51:32.036Z,16.80
2019-02-18T20:53:59.524Z,16.73
2019-02-18T20:56:27.029Z,17.37
2019-02-18T20:58:54.647Z,17.25
2019-02-18T21:01:21.837Z,17.48
2019-02-18T21:03:49.550Z,17.90
2019-02-18T21:06:17.200Z,18.40
2019-02-18T21:08:44.578Z,17.15
2019-02-18T21:11:11.958Z,16.40
2019-02-18T21:13:39.618Z,17.55
2019-02-18T21:16:07.136Z,17.55
2019-02-18T21:18:34.289Z,17.90
2019-02-18T21:21:01.455Z,18.77
2019-02-18T21:23:28.907Z,16.85
2019-02-18T21:25:56.906Z,17.73
2019-02-18T21:28:24.738Z,16.73
2019-02-18T21:30:52.434Z,17.87
2019-02-18T21:33:19.720Z,18.55
2019-02-18T21:35:46.926Z,17.07
2019-02-18T21:38:14.889Z,16.17
2019-02-18T21:40:42.245Z,16.15
2019-02-18T21:43:09.578Z,14.55
2019-02-18T21:45:38.812Z,15.95
2019-02-18T21:48:05.851Z,17.82
2019-02-18T21:50:33.019Z,19.00
2019-02-18T21:53:00.271Z,16.97
2019-02-18T21:55:27.878Z,17.17
2019-02-18T21:57:55.247Z,16.07
2019-02-18T22:00:23.398Z,16.60
2019-02-18T22:02:58.337Z,16.10
2019-02-18T22:05:25.842Z,17.85
2019-02-18T22:07:54.366Z,17.52
2019-02-18T22:10:22.378Z,16.55
2019-02-18T22:12:49.838Z,15.10
2019-02-18T22:15:17.187Z,16.42
2019-02-18T22:17:44.565Z,16.75
2019-02-18T22:20:12.875Z,16.73
2019-02-18T22:22:41.773Z,16.75
2019-02-18T22:25:10.384Z,16.32
2019-02-18T22:27:37.706Z,16.25
2019-02-18T22:30:06.649Z,15.28
2019-02-18T22:32:33.987Z,16.67
2019-02-18T22:35:02.747Z,16.57
2019-02-18T22:37:31.189Z,15.53
2019-02-18T22:39:58.410Z,15.10
2019-02-18T22:42:25.754Z,15.38
2019-02-18T22:44:52.959Z,16.05
2019-02-18T22:47:20.225Z,16.10
2019-02-18T22:49:47.542Z,14.98
2019-02-18T22:52:15.112Z,15.18
2019-02-18T22:54:42.406Z,16.62
2019-02-18T22:57:10.082Z,15.93
2019-02-18T22:59:37.361Z,16.55
2019-02-18T23:02:06.674Z,16.17
2019-02-18T23:04:34.144Z,16.37
2019-02-18T23:07:01.527Z,15.03
2019-02-18T23:09:28.914Z,16.10
2019-02-18T23:11:56.218Z,15.30
2019-02-18T23:14:23.858Z,16.37
2019-02-18T23:16:51.128Z,14.45
2019-02-18T23:19:18.614Z,13.88
2019-02-18T23:21:45.858Z,14.13
2019-02-18T23:24:13.386Z,14.68
2019-02-18T23:26:41.035Z,15.03
2019-02-18T23:29:08.321Z,14.53
2019-02-18T23:31:35.584Z,15.00
2019-02-18T23:34:03.380Z,14.58
2019-02-18T23:36:32.173Z,15.83
2019-02-18T23:38:59.389Z,14.78
2019-02-18T23:41:26.907Z,14.15
2019-02-18T23:43:54.604Z,15.60
2019-02-18T23:46:22.571Z,15.18
2019-02-18T23:48:50.210Z,15.13
2019-02-18T23:51:17.890Z,15.48
2019-02-18T23:53:45.172Z,14.85
2019-02-18T23:56:12.387Z,15.05
2019-02-18T23:58:39.843Z,14.20
